Airfield :







YOU CAN JOIN US ON...

 
LOGIN :

Register | Disclaimer

   EN    FR    IT 

 









Legend :    VFR   Marginal VFR   IFR   Intensive IFR   Very Intensive IFR
Visi :
Ceiling :
>= 8 km
>= 3000ft
5 to 8 km
1000 to 3000 ft
1500m to 5 km
500 to 1000 ft
800 to 1500m
200 to 500 ft
< 800m
< 200 ft
Symbols :   Thunderstorms  Fog  Heavy snow  Heavy precipitations  Wind > 20 kt






- Airport Elevation : 555 ft


KORE - Orange Municipal

CURRENT METAR :
  • 180152Z AUTO 36004KT 10SM CLR M12/M22 A3062 RMK AO2 SLP384 T11171217

EXPIRED METARs :
  • 180052Z AUTO 36005KT 10SM CLR M11/M22 A3062 RMK AO2 SLP382 T11111222
  • 172352Z AUTO 35007KT 10SM CLR M10/M22 A3062 RMK AO2 SLP380 T11001222 11072 21106 51012

TAF N/A



MET'MAP, your aeronautical weather chart ! - Copyright ORBIFLY December 2007 - Disclaimer

ORBIFLY MET'MAP TEAM :

Programming & Development : Alexandra Zaïnal
Concept & original design : Baudouin d'Aumeries
Assistance for programming : Marc-Olivier Méhu
Technical & hardware support : Manuel Goepfert

Contact : metmap@orbifly.com




SOURCES & CREDITS :

   NOAA